createdAt,value
2018-09-02T00:00:32.545Z,7.20
2018-09-02T00:03:01.657Z,8.90
2018-09-02T00:05:30.018Z,7.42
2018-09-02T00:07:58.885Z,7.40
2018-09-02T00:10:27.240Z,7.85
2018-09-02T00:12:55.514Z,7.50
2018-09-02T00:15:23.745Z,7.30
2018-09-02T00:17:52.205Z,6.28
2018-09-02T00:20:20.724Z,6.75
2018-09-02T00:22:49.002Z,6.45
2018-09-02T00:25:17.306Z,7.12
2018-09-02T00:27:45.685Z,8.95
2018-09-02T00:30:13.955Z,7.35
2018-09-02T00:32:42.205Z,7.22
2018-09-02T00:35:10.469Z,7.37
2018-09-02T00:37:38.732Z,6.87
2018-09-02T00:40:06.935Z,9.35
2018-09-02T00:42:35.158Z,6.40
2018-09-02T00:45:03.388Z,5.78
2018-09-02T00:47:31.717Z,9.10
2018-09-02T00:49:59.939Z,6.03
2018-09-02T00:52:28.165Z,6.95
2018-09-02T00:54:56.374Z,6.60
2018-09-02T00:57:24.638Z,8.43
2018-09-02T00:59:52.911Z,7.25
2018-09-02T01:02:21.159Z,8.95
2018-09-02T01:04:49.430Z,7.80
2018-09-02T01:07:17.685Z,7.05
2018-09-02T01:09:45.964Z,6.85
2018-09-02T01:12:14.249Z,7.33
2018-09-02T01:14:42.555Z,6.72
2018-09-02T01:17:10.773Z,7.15
2018-09-02T01:19:39.027Z,6.00
2018-09-02T01:22:07.292Z,6.78
2018-09-02T01:24:35.562Z,7.05
2018-09-02T01:27:03.801Z,6.65
2018-09-02T01:29:32.273Z,9.50
2018-09-02T01:32:00.496Z,7.08
2018-09-02T01:34:28.734Z,7.65
2018-09-02T01:36:56.997Z,7.62
2018-09-02T01:39:25.182Z,8.95
2018-09-02T01:41:53.445Z,8.20
2018-09-02T01:44:21.650Z,8.10
2018-09-02T01:46:49.856Z,7.85
2018-09-02T01:49:18.069Z,8.73
2018-09-02T01:51:46.346Z,10.70
2018-09-02T01:54:14.649Z,7.87
2018-09-02T01:56:42.907Z,10.10
2018-09-02T01:59:11.125Z,7.67
2018-09-02T02:01:39.453Z,7.45
2018-09-02T02:04:07.773Z,8.85
2018-09-02T02:06:36.059Z,9.30
2018-09-02T02:09:05.825Z,7.03
2018-09-02T02:11:34.054Z,7.10
2018-09-02T02:14:02.279Z,8.78
2018-09-02T02:16:30.501Z,7.42
2018-09-02T02:18:58.772Z,7.28
2018-09-02T02:21:26.970Z,9.98
2018-09-02T02:23:55.237Z,7.87
2018-09-02T02:26:23.530Z,7.85
2018-09-02T02:28:51.888Z,8.48
2018-09-02T02:31:20.157Z,8.10
2018-09-02T02:33:48.449Z,7.28
2018-09-02T02:36:16.673Z,7.97
2018-09-02T02:38:44.919Z,8.18
2018-09-02T02:41:13.125Z,11.73
2018-09-02T02:43:41.442Z,8.43
2018-09-02T02:46:09.661Z,11.30
2018-09-02T02:48:37.846Z,9.55
2018-09-02T02:51:06.150Z,6.87
2018-09-02T02:53:34.394Z,10.30
2018-09-02T02:56:02.605Z,8.85
2018-09-02T02:58:30.826Z,9.20
2018-09-02T03:00:59.066Z,8.55
2018-09-02T03:03:27.313Z,8.03
2018-09-02T03:05:55.641Z,8.35
2018-09-02T03:08:23.846Z,7.72
2018-09-02T03:10:52.167Z,8.43
2018-09-02T03:13:20.342Z,9.50
2018-09-02T03:15:48.589Z,9.70
2018-09-02T03:18:16.792Z,8.18
2018-09-02T03:20:45.013Z,10.58
2018-09-02T03:23:13.206Z,9.55
2018-09-02T03:25:41.533Z,8.60
2018-09-02T03:28:09.759Z,8.85
2018-09-02T03:30:38.032Z,8.85
2018-09-02T03:33:06.455Z,9.43
2018-09-02T03:35:34.707Z,9.03
2018-09-02T03:38:02.921Z,11.05
2018-09-02T03:40:31.122Z,8.63
2018-09-02T03:42:59.381Z,8.30
2018-09-02T03:45:27.616Z,10.70
2018-09-02T03:47:56.610Z,9.35
2018-09-02T03:50:24.970Z,8.93
2018-09-02T03:52:53.250Z,8.43
2018-09-02T03:55:21.530Z,10.50
2018-09-02T03:57:49.858Z,14.33
2018-09-02T04:00:18.053Z,9.33
2018-09-02T04:02:46.350Z,11.78
2018-09-02T04:05:14.605Z,9.78
2018-09-02T04:07:42.894Z,9.85
2018-09-02T04:10:11.081Z,8.73
2018-09-02T04:12:39.366Z,9.18
2018-09-02T04:15:07.725Z,16.87
2018-09-02T04:17:35.938Z,10.38
2018-09-02T04:20:04.478Z,8.33
2018-09-02T04:22:32.687Z,10.35
2018-09-02T04:25:00.995Z,15.85
2018-09-02T04:27:29.277Z,11.40
2018-09-02T04:29:57.507Z,8.48
2018-09-02T04:32:25.804Z,10.05
2018-09-02T04:34:54.093Z,8.85
2018-09-02T04:37:22.360Z,10.58
2018-09-02T04:39:50.756Z,9.33
2018-09-02T04:42:18.989Z,10.05
2018-09-02T04:44:47.213Z,11.20
2018-09-02T04:47:15.542Z,10.30
2018-09-02T04:49:43.755Z,12.30
2018-09-02T04:52:12.027Z,9.73
2018-09-02T04:54:40.241Z,10.18
2018-09-02T04:57:08.441Z,9.85
2018-09-02T04:59:36.631Z,9.33
2018-09-02T05:02:04.898Z,10.10
2018-09-02T05:04:33.094Z,12.33
2018-09-02T05:07:01.322Z,9.63
2018-09-02T05:09:29.596Z,10.93
2018-09-02T05:11:57.789Z,12.88
2018-09-02T05:14:26.091Z,10.43
2018-09-02T05:16:54.299Z,9.25
2018-09-02T05:19:22.538Z,9.63
2018-09-02T05:21:50.781Z,12.58
2018-09-02T05:24:19.087Z,13.60
2018-09-02T05:26:47.308Z,9.73
2018-09-02T05:29:15.534Z,10.00
2018-09-02T05:31:43.839Z,9.10
2018-09-02T05:34:12.036Z,11.83
2018-09-02T05:36:40.325Z,10.35
2018-09-02T05:39:09.750Z,10.63
2018-09-02T05:41:38.037Z,8.83
2018-09-02T05:44:06.402Z,10.08
2018-09-02T05:46:34.493Z,10.18
2018-09-02T05:49:02.694Z,9.63
2018-09-02T05:51:30.897Z,11.53
2018-09-02T05:53:59.165Z,12.30
2018-09-02T05:56:27.420Z,10.18
2018-09-02T05:58:55.660Z,10.00
2018-09-02T06:01:23.913Z,9.00
2018-09-02T06:03:52.166Z,7.65
2018-09-02T06:06:20.371Z,8.10
2018-09-02T06:08:48.569Z,6.85
2018-09-02T06:11:16.797Z,8.30
2018-09-02T06:13:45.066Z,9.18
2018-09-02T06:16:13.397Z,13.50
2018-09-02T06:18:41.662Z,9.45
2018-09-02T06:21:09.933Z,8.80
2018-09-02T06:23:38.209Z,9.53
2018-09-02T06:26:06.414Z,7.12
2018-09-02T06:28:34.682Z,9.48
2018-09-02T06:31:03.240Z,8.45
2018-09-02T06:33:31.476Z,9.10
2018-09-02T06:35:59.671Z,9.80
2018-09-02T06:38:27.931Z,7.33
2018-09-02T06:40:56.153Z,9.40
2018-09-02T06:43:24.369Z,15.35
2018-09-02T06:45:52.640Z,9.55
2018-09-02T06:48:21.252Z,8.78
2018-09-02T06:50:49.833Z,7.78
2018-09-02T06:53:18.158Z,10.20
2018-09-02T06:55:46.386Z,8.80
2018-09-02T06:58:14.625Z,7.58
2018-09-02T07:00:42.874Z,8.10
2018-09-02T07:03:11.202Z,8.15
2018-09-02T07:05:40.914Z,9.58
2018-09-02T07:08:10.734Z,8.28
2018-09-02T07:10:39.512Z,11.00
2018-09-02T07:13:07.767Z,9.60
2018-09-02T07:15:36.021Z,10.30
2018-09-02T07:18:04.273Z,7.95
2018-09-02T07:20:33.149Z,10.65
2018-09-02T07:25:23.221Z,9.93
2018-09-02T07:27:51.437Z,10.20
2018-09-02T07:30:19.676Z,8.03
2018-09-02T07:32:47.933Z,10.17
2018-09-02T07:35:16.258Z,8.47
2018-09-02T07:37:44.630Z,9.77
2018-09-02T07:40:13.057Z,8.40
2018-09-02T07:42:41.277Z,8.90
2018-09-02T07:45:10.238Z,8.37
2018-09-02T07:47:38.484Z,8.80
2018-09-02T07:50:06.683Z,7.90
2018-09-02T07:52:34.933Z,8.30
2018-09-02T07:55:03.197Z,8.47
2018-09-02T07:57:31.472Z,9.30
2018-09-02T07:59:59.701Z,8.10
2018-09-02T08:02:27.965Z,11.00
2018-09-02T08:04:56.173Z,10.37
2018-09-02T08:07:24.482Z,8.63
2018-09-02T08:09:52.704Z,8.33
2018-09-02T08:12:21.028Z,9.43
2018-09-02T08:14:49.218Z,8.70
2018-09-02T08:17:17.517Z,8.67
2018-09-02T08:19:45.902Z,8.80
2018-09-02T08:22:14.153Z,10.47
2018-09-02T08:24:42.465Z,9.10
2018-09-02T08:27:10.709Z,8.87
2018-09-02T08:29:38.977Z,10.70
2018-09-02T08:32:07.235Z,8.50
2018-09-02T08:34:35.433Z,9.00
2018-09-02T08:37:03.758Z,9.57
2018-09-02T08:39:32.009Z,11.33
2018-09-02T08:42:00.292Z,9.90
2018-09-02T08:44:28.502Z,9.37
2018-09-02T08:46:56.733Z,11.67
2018-09-02T08:49:24.949Z,9.73
2018-09-02T08:51:53.236Z,9.90
2018-09-02T08:54:21.440Z,8.17
2018-09-02T08:56:49.916Z,7.70
2018-09-02T08:59:18.159Z,7.80
2018-09-02T09:01:46.523Z,8.90
2018-09-02T09:04:14.692Z,8.30
2018-09-02T09:06:42.946Z,7.60
2018-09-02T09:09:11.326Z,7.80
2018-09-02T09:11:39.469Z,8.50
2018-09-02T09:14:07.741Z,6.40
2018-09-02T09:16:35.932Z,7.97
2018-09-02T09:19:04.270Z,6.27
2018-09-02T09:21:32.509Z,8.33
2018-09-02T09:24:00.862Z,6.53
2018-09-02T09:26:29.110Z,8.40
2018-09-02T09:28:57.333Z,6.43
2018-09-02T09:31:25.561Z,6.60
2018-09-02T09:33:53.783Z,6.73
2018-09-02T09:36:22.126Z,7.17
2018-09-02T09:38:50.345Z,6.20
2018-09-02T09:41:18.589Z,7.10
2018-09-02T09:43:46.870Z,8.17
2018-09-02T09:46:15.101Z,6.80
2018-09-02T09:48:43.302Z,6.90
2018-09-02T09:51:11.613Z,5.90
2018-09-02T09:53:39.858Z,6.70
2018-09-02T09:56:08.146Z,7.67
2018-09-02T09:58:36.355Z,8.23
2018-09-02T10:01:04.562Z,7.37
2018-09-02T10:03:33.853Z,8.77
2018-09-02T10:08:36.769Z,6.37
2018-09-02T10:11:05.013Z,7.13
2018-09-02T10:13:33.232Z,9.53
2018-09-02T10:16:01.454Z,6.77
2018-09-02T10:18:29.682Z,6.90
2018-09-02T10:20:57.920Z,6.80
2018-09-02T10:23:26.189Z,7.70
2018-09-02T10:25:54.557Z,7.60
2018-09-02T10:28:22.836Z,6.77
2018-09-02T10:30:51.097Z,6.97
2018-09-02T10:33:19.477Z,6.60
2018-09-02T10:35:47.704Z,8.10
2018-09-02T10:38:15.961Z,9.47
2018-09-02T10:40:44.189Z,7.03
2018-09-02T10:43:12.465Z,6.30
2018-09-02T10:45:40.831Z,7.00
2018-09-02T10:48:09.068Z,7.70
2018-09-02T10:50:37.269Z,8.30
2018-09-02T10:53:05.564Z,6.47
2018-09-02T10:55:33.830Z,7.40
2018-09-02T10:58:02.121Z,8.40
2018-09-02T11:00:30.375Z,6.93
2018-09-02T11:02:58.570Z,6.17
2018-09-02T11:05:26.798Z,5.97
2018-09-02T11:07:55.117Z,6.93
2018-09-02T11:10:23.318Z,7.37
2018-09-02T11:12:51.526Z,6.80
2018-09-02T11:15:19.770Z,7.77
2018-09-02T11:17:47.998Z,6.17
2018-09-02T11:20:16.254Z,6.07
2018-09-02T11:22:44.466Z,5.80
2018-09-02T11:25:12.788Z,7.13
2018-09-02T11:27:41.026Z,7.47
2018-09-02T11:30:09.258Z,8.00
2018-09-02T11:32:37.615Z,7.43
2018-09-02T11:35:05.969Z,6.60
2018-09-02T11:37:34.192Z,6.97
2018-09-02T11:40:02.713Z,7.10
2018-09-02T11:42:30.961Z,8.70
2018-09-02T11:44:59.239Z,6.50
2018-09-02T11:47:27.484Z,5.67
2018-09-02T11:49:55.814Z,7.90
2018-09-02T11:52:24.040Z,6.20
2018-09-02T11:54:52.269Z,4.93
2018-09-02T11:57:21.150Z,6.97
2018-09-02T11:59:49.366Z,4.07
2018-09-02T12:02:17.643Z,4.63
2018-09-02T12:04:45.930Z,5.30
2018-09-02T12:07:14.221Z,4.40
2018-09-02T12:09:42.586Z,4.70
2018-09-02T12:12:10.824Z,7.67
2018-09-02T12:14:39.212Z,6.40
2018-09-02T12:17:07.337Z,7.37
2018-09-02T12:19:35.666Z,7.50
2018-09-02T12:22:04.517Z,8.30
2018-09-02T12:24:32.786Z,7.17
2018-09-02T12:27:01.103Z,7.57
2018-09-02T12:29:29.330Z,7.50
2018-09-02T12:31:57.674Z,5.73
2018-09-02T12:34:25.992Z,5.57
2018-09-02T12:36:54.286Z,3.57
2018-09-02T12:39:22.585Z,2.70
2018-09-02T12:41:50.798Z,3.33
2018-09-02T12:44:19.071Z,3.60
2018-09-02T12:46:47.291Z,3.50
2018-09-02T12:49:15.515Z,3.30
2018-09-02T12:51:43.743Z,5.23
2018-09-02T12:54:12.126Z,6.30
2018-09-02T12:56:40.262Z,6.57
2018-09-02T12:59:08.534Z,6.07
2018-09-02T13:01:36.765Z,5.20
2018-09-02T13:04:05.012Z,4.87
2018-09-02T13:06:33.230Z,9.17
2018-09-02T13:09:01.492Z,6.97
2018-09-02T13:11:29.836Z,4.67
2018-09-02T13:13:58.207Z,5.40
2018-09-02T13:16:26.493Z,4.47
2018-09-02T13:18:54.818Z,4.57
2018-09-02T13:21:23.073Z,4.57
2018-09-02T13:23:51.374Z,4.10
2018-09-02T13:26:19.565Z,4.20
2018-09-02T13:28:47.799Z,4.70
2018-09-02T13:31:16.085Z,3.50
2018-09-02T13:33:44.405Z,4.40
2018-09-02T13:36:12.711Z,3.50
2018-09-02T13:38:40.965Z,4.00
2018-09-02T13:41:09.270Z,3.30
2018-09-02T13:43:37.545Z,3.13
2018-09-02T13:46:05.879Z,4.23
2018-09-02T13:48:34.208Z,3.80
2018-09-02T13:51:02.374Z,3.30
2018-09-02T13:53:30.590Z,3.43
2018-09-02T13:55:58.828Z,3.10
2018-09-02T13:58:27.030Z,4.57
2018-09-02T14:00:55.359Z,4.00
2018-09-02T14:03:23.549Z,4.10
2018-09-02T14:05:51.777Z,3.57
2018-09-02T14:08:20.087Z,2.80
2018-09-02T14:10:48.365Z,3.10
2018-09-02T14:13:16.646Z,3.23
2018-09-02T14:15:44.910Z,3.00
2018-09-02T14:18:13.106Z,3.70
2018-09-02T14:20:41.326Z,3.83
2018-09-02T14:23:09.549Z,3.77
2018-09-02T14:25:37.749Z,3.57
2018-09-02T14:28:06.001Z,4.17
2018-09-02T14:30:34.201Z,2.87
2018-09-02T14:33:02.415Z,5.80
2018-09-02T14:35:30.621Z,4.80
2018-09-02T14:37:59.209Z,3.20
2018-09-02T14:40:27.442Z,5.27
2018-09-02T14:42:56.122Z,2.63
2018-09-02T14:45:24.385Z,3.00
2018-09-02T14:47:52.662Z,5.30
2018-09-02T14:50:20.863Z,3.97
2018-09-02T14:52:49.161Z,3.97
2018-09-02T14:55:17.369Z,4.23
2018-09-02T14:57:45.589Z,6.03
2018-09-02T15:00:13.926Z,4.57
2018-09-02T15:02:42.198Z,4.27
2018-09-02T15:05:11.031Z,5.40
2018-09-02T15:07:39.288Z,4.13
2018-09-02T15:10:07.582Z,4.47
2018-09-02T15:12:35.843Z,4.10
2018-09-02T15:15:04.102Z,5.10
2018-09-02T15:17:32.397Z,3.93
2018-09-02T15:20:00.679Z,4.10
2018-09-02T15:22:28.891Z,5.07
2018-09-02T15:24:57.423Z,7.77
2018-09-02T15:27:25.650Z,3.67
2018-09-02T15:29:53.895Z,4.67
2018-09-02T15:32:22.151Z,4.40
2018-09-02T15:34:51.327Z,4.37
2018-09-02T15:37:19.539Z,3.40
2018-09-02T15:39:47.878Z,3.70
2018-09-02T15:42:16.121Z,4.20
2018-09-02T15:44:44.326Z,4.10
2018-09-02T15:47:12.636Z,5.10
2018-09-02T15:49:40.873Z,6.53
2018-09-02T15:52:09.141Z,6.80
2018-09-02T15:54:37.363Z,7.10
2018-09-02T15:57:05.609Z,5.90
2018-09-02T15:59:33.821Z,5.53
2018-09-02T16:02:02.453Z,7.03
2018-09-02T16:04:30.662Z,5.13
2018-09-02T16:06:58.878Z,4.83
2018-09-02T16:09:27.181Z,5.07
2018-09-02T16:11:55.514Z,3.90
2018-09-02T16:14:24.558Z,5.30
2018-09-02T16:16:52.810Z,7.90
2018-09-02T16:19:21.057Z,6.40
2018-09-02T16:21:49.290Z,5.10
2018-09-02T16:24:17.530Z,5.27
2018-09-02T16:26:45.980Z,4.77
2018-09-02T16:29:14.219Z,6.13
2018-09-02T16:31:42.444Z,4.90
2018-09-02T16:34:10.648Z,5.53
2018-09-02T16:36:38.933Z,3.93
2018-09-02T16:39:07.861Z,5.40
2018-09-02T16:41:36.150Z,5.30
2018-09-02T16:44:05.077Z,7.10
2018-09-02T16:46:33.379Z,4.67
2018-09-02T16:49:01.709Z,5.30
2018-09-02T16:51:29.942Z,5.13
2018-09-02T16:53:58.268Z,5.40
2018-09-02T16:56:26.508Z,5.30
2018-09-02T16:58:54.734Z,7.93
2018-09-02T17:01:23.029Z,5.00
2018-09-02T17:03:55.671Z,6.03
2018-09-02T17:06:23.886Z,6.43
2018-09-02T17:08:52.205Z,7.10
2018-09-02T17:11:20.539Z,10.27
2018-09-02T17:13:48.761Z,5.93
2018-09-02T17:16:16.994Z,5.37
2018-09-02T17:18:45.271Z,5.67
2018-09-02T17:21:13.512Z,5.03
2018-09-02T17:23:41.781Z,5.60
2018-09-02T17:26:10.224Z,4.63
2018-09-02T17:28:38.425Z,5.50
2018-09-02T17:31:06.845Z,4.77
2018-09-02T17:33:35.175Z,5.00
2018-09-02T17:36:03.422Z,5.17
2018-09-02T17:38:31.647Z,4.83
2018-09-02T17:40:59.949Z,4.97
2018-09-02T17:43:28.179Z,5.70
2018-09-02T17:45:56.513Z,4.50
2018-09-02T17:48:24.682Z,5.60
2018-09-02T17:50:52.944Z,4.67
2018-09-02T17:53:21.178Z,6.07
2018-09-02T17:55:49.558Z,4.57
2018-09-02T17:58:17.730Z,6.27
2018-09-02T18:00:49.266Z,5.20
2018-09-02T18:03:17.594Z,6.30
2018-09-02T18:05:45.814Z,8.83
2018-09-02T18:08:14.082Z,6.63
2018-09-02T18:10:42.290Z,6.27
2018-09-02T18:13:10.524Z,5.60
2018-09-02T18:15:38.734Z,6.70
2018-09-02T18:18:06.956Z,5.80
2018-09-02T18:20:35.249Z,6.37
2018-09-02T18:23:03.530Z,6.60
2018-09-02T18:25:31.920Z,8.23
2018-09-02T18:28:03.635Z,6.60
2018-09-02T18:30:31.878Z,7.27
2018-09-02T18:33:00.134Z,6.50
2018-09-02T18:35:28.358Z,6.33
2018-09-02T18:37:56.728Z,6.97
2018-09-02T18:40:24.965Z,6.80
2018-09-02T18:42:53.218Z,7.40
2018-09-02T18:45:21.503Z,7.47
2018-09-02T18:47:49.905Z,7.47
2018-09-02T18:50:18.173Z,8.37
2018-09-02T18:52:46.456Z,7.60
2018-09-02T18:55:14.711Z,8.03
2018-09-02T18:57:43.012Z,7.50
2018-09-02T19:00:11.278Z,8.30
2018-09-02T19:02:39.549Z,8.30
2018-09-02T19:05:07.777Z,8.90
2018-09-02T19:07:36.103Z,8.10
2018-09-02T19:10:04.357Z,8.07
2018-09-02T19:12:32.579Z,7.77
2018-09-02T19:15:00.803Z,9.03
2018-09-02T19:17:29.098Z,7.90
2018-09-02T19:19:57.346Z,8.17
2018-09-02T19:22:25.650Z,10.87
2018-09-02T19:24:53.937Z,10.63
2018-09-02T19:27:22.257Z,8.10
2018-09-02T19:29:50.687Z,8.60
2018-09-02T19:32:18.798Z,11.20
2018-09-02T19:34:47.041Z,9.43
2018-09-02T19:37:15.330Z,9.67
2018-09-02T19:39:43.583Z,8.77
2018-09-02T19:42:11.854Z,9.43
2018-09-02T19:44:40.078Z,8.20
2018-09-02T19:47:08.354Z,9.30
2018-09-02T19:49:36.774Z,9.90
2018-09-02T19:52:05.591Z,10.20
2018-09-02T19:54:33.857Z,9.90
2018-09-02T19:57:02.078Z,10.43
2018-09-02T19:59:30.302Z,9.80
2018-09-02T20:01:58.526Z,10.87
2018-09-02T20:04:26.713Z,10.30
2018-09-02T20:06:54.942Z,9.10
2018-09-02T20:09:23.273Z,9.90
2018-09-02T20:11:51.509Z,10.10
2018-09-02T20:14:19.722Z,9.40
2018-09-02T20:16:47.953Z,9.90
2018-09-02T20:19:16.169Z,10.27
2018-09-02T20:21:44.393Z,10.13
2018-09-02T20:24:12.635Z,11.17
2018-09-02T20:26:40.902Z,10.30
2018-09-02T20:29:09.113Z,10.40
2018-09-02T20:31:38.083Z,11.27
2018-09-02T20:34:06.310Z,10.30
2018-09-02T20:36:34.534Z,9.13
2018-09-02T20:39:03.649Z,10.43
2018-09-02T20:41:31.915Z,10.63
2018-09-02T20:44:00.122Z,10.10
2018-09-02T20:46:28.430Z,9.90
2018-09-02T20:48:56.711Z,10.87
2018-09-02T20:51:24.965Z,9.97
2018-09-02T20:53:53.614Z,10.30
2018-09-02T20:56:22.162Z,10.43
2018-09-02T20:58:50.642Z,10.00
2018-09-02T21:01:19.117Z,10.80
2018-09-02T21:03:47.345Z,10.03
2018-09-02T21:06:15.562Z,10.67
2018-09-02T21:08:43.814Z,10.43
2018-09-02T21:11:12.114Z,11.30
2018-09-02T21:13:40.386Z,10.00
2018-09-02T21:16:08.625Z,9.93
2018-09-02T21:18:36.893Z,9.50
2018-09-02T21:21:05.142Z,11.43
2018-09-02T21:23:33.350Z,9.33
2018-09-02T21:26:01.621Z,10.00
2018-09-02T21:28:29.888Z,9.77
2018-09-02T21:30:58.159Z,9.63
2018-09-02T21:33:26.375Z,10.30
2018-09-02T21:35:54.621Z,8.53
2018-09-02T21:38:22.889Z,9.03
2018-09-02T21:40:51.189Z,8.50
2018-09-02T21:43:19.482Z,8.40
2018-09-02T21:45:47.714Z,7.95
2018-09-02T21:48:15.981Z,8.97
2018-09-02T21:50:44.217Z,7.80
2018-09-02T21:53:12.641Z,6.73
2018-09-02T21:55:40.898Z,7.10
2018-09-02T21:58:09.213Z,7.00
2018-09-02T22:00:37.420Z,6.67
2018-09-02T22:03:05.813Z,7.10
2018-09-02T22:05:34.021Z,7.53
2018-09-02T22:08:02.257Z,7.87
2018-09-02T22:10:30.469Z,8.93
2018-09-02T22:12:58.794Z,8.40
2018-09-02T22:15:27.073Z,9.23
2018-09-02T22:17:55.390Z,8.65
2018-09-02T22:20:23.606Z,9.40
2018-09-02T22:22:51.806Z,10.13
2018-09-02T22:25:20.073Z,8.63
2018-09-02T22:27:48.305Z,8.30
2018-09-02T22:30:16.561Z,8.10
2018-09-02T22:32:44.901Z,8.97
2018-09-02T22:35:13.127Z,7.23
2018-09-02T22:37:42.391Z,7.93
2018-09-02T22:40:11.071Z,7.80
2018-09-02T22:42:39.356Z,8.93
2018-09-02T22:45:07.602Z,8.70
2018-09-02T22:48:00.309Z,8.50
2018-09-02T22:50:28.533Z,8.27
2018-09-02T22:52:56.825Z,9.33
2018-09-02T22:55:25.106Z,10.10
2018-09-02T22:57:53.589Z,10.28
2018-09-02T23:00:22.705Z,9.70
2018-09-02T23:02:50.994Z,10.90
2018-09-02T23:05:19.265Z,10.00
2018-09-02T23:07:47.525Z,10.32
2018-09-02T23:10:15.740Z,11.40
2018-09-02T23:12:43.989Z,11.73
2018-09-02T23:15:12.205Z,10.93
2018-09-02T23:17:40.457Z,11.23
2018-09-02T23:20:08.690Z,11.20
2018-09-02T23:22:36.962Z,12.00
2018-09-02T23:25:05.212Z,12.43
2018-09-02T23:27:33.494Z,11.27
2018-09-02T23:30:01.742Z,11.00
2018-09-02T23:32:30.010Z,11.13
2018-09-02T23:34:58.274Z,12.03
2018-09-02T23:37:26.617Z,11.73
2018-09-02T23:39:54.895Z,12.50
2018-09-02T23:42:23.166Z,12.43
2018-09-02T23:44:51.377Z,13.30
2018-09-02T23:47:19.678Z,12.60
2018-09-02T23:49:47.941Z,12.93
2018-09-02T23:52:16.176Z,13.35
2018-09-02T23:54:44.455Z,13.67
2018-09-02T23:57:12.709Z,13.22
2018-09-02T23:59:41.082Z,13.30
